Weather at Ioannina Airport

Public forecast

Using degrees Celsius for public forecast. Weather courtesy of forecast.io.

Current aviation weather report (METAR) for Ioannina Airport

Report is more than 6 hours old.

2022/11/14 15:20 (retrieved 2 years ago)

LGIO 141520Z AUTO 26004KT 240V300 //// // ////// 16/11 Q1023 RE//

Closest aviation forecast (TAF) to Ioannina Airport

Forecast is more than 12 hours old.

Closest forecast is Ioannis Kapodistrias International Airport, 42.5 nm (78.7 km) W.

2023/02/22 18:13 (retrieved 1 year ago)

TAF LGKR 221700Z 2218/2318 VRB05KT 9999 SCT018 PROB40 2222/2306 3000 BR SCT006